createdAt,value
2023-03-28T00:00:31.333Z,0.90
2023-03-28T00:02:57.749Z,0.93
2023-03-28T00:05:24.363Z,1.25
2023-03-28T00:07:51.331Z,1.02
2023-03-28T00:10:17.709Z,0.77
2023-03-28T00:12:44.075Z,0.90
2023-03-28T00:15:10.645Z,0.90
2023-03-28T00:17:37.027Z,1.50
2023-03-28T00:20:05.953Z,1.25
2023-03-28T00:22:33.408Z,0.90
2023-03-28T00:24:59.795Z,0.70
2023-03-28T00:27:26.222Z,0.90
2023-03-28T00:29:52.617Z,0.82
2023-03-28T00:32:19.015Z,1.30
2023-03-28T00:34:45.469Z,1.60
2023-03-28T00:37:17.244Z,1.15
2023-03-28T00:39:50.107Z,1.05
2023-03-28T00:42:21.074Z,0.80
2023-03-28T00:44:52.375Z,1.10
2023-03-28T00:47:27.962Z,1.10
2023-03-28T00:49:58.033Z,0.60
2023-03-28T00:52:25.973Z,0.93
2023-03-28T00:54:52.740Z,1.00
2023-03-28T00:57:19.579Z,1.10
2023-03-28T00:59:46.323Z,1.00
2023-03-28T01:02:12.661Z,0.85
2023-03-28T01:04:46.460Z,0.73
2023-03-28T01:07:13.931Z,0.90
2023-03-28T01:09:40.483Z,0.90
2023-03-28T01:12:07.158Z,1.10
2023-03-28T01:14:36.858Z,1.23
2023-03-28T01:17:03.831Z,0.85
2023-03-28T01:19:30.237Z,1.40
2023-03-28T01:22:15.232Z,1.23
2023-03-28T01:24:56.656Z,0.80
2023-03-28T01:27:41.823Z,0.77
2023-03-28T01:30:29.610Z,0.82
2023-03-28T01:33:06.898Z,1.00
2023-03-28T01:35:36.690Z,1.00
2023-03-28T01:38:22.047Z,1.00
2023-03-28T01:40:48.412Z,1.17
2023-03-28T01:43:27.189Z,1.00
2023-03-28T01:45:58.534Z,1.02
2023-03-28T01:48:39.988Z,0.70
2023-03-28T01:51:06.630Z,0.80
2023-03-28T01:53:39.422Z,1.20
2023-03-28T01:56:24.595Z,0.90
2023-03-28T01:58:56.986Z,0.80
2023-03-28T02:01:26.304Z,0.77
2023-03-28T02:03:55.954Z,1.13
2023-03-28T02:06:23.036Z,1.10
2023-03-28T02:08:50.514Z,0.65
2023-03-28T02:11:16.910Z,1.00
2023-03-28T02:13:51.122Z,0.75
2023-03-28T02:16:18.922Z,1.10
2023-03-28T02:18:47.729Z,1.40
2023-03-28T02:21:17.463Z,1.23
2023-03-28T02:23:48.430Z,0.88
2023-03-28T02:26:14.774Z,1.40
2023-03-28T02:28:43.078Z,0.90
2023-03-28T02:31:09.708Z,0.75
2023-03-28T02:33:38.868Z,0.90
2023-03-28T02:36:05.593Z,0.50
2023-03-28T02:38:43.890Z,0.77
2023-03-28T02:41:20.432Z,0.90
2023-03-28T02:43:46.834Z,0.88
2023-03-28T02:46:23.043Z,1.20
2023-03-28T02:48:57.052Z,0.73
2023-03-28T02:51:30.158Z,1.00
2023-03-28T02:54:13.649Z,0.90
2023-03-28T02:56:45.990Z,0.70
2023-03-28T02:59:16.594Z,0.90
2023-03-28T03:01:43.724Z,1.08
2023-03-28T03:04:11.422Z,1.20
2023-03-28T03:06:37.909Z,0.82
2023-03-28T03:09:04.932Z,1.08
2023-03-28T03:11:31.937Z,1.00
2023-03-28T03:14:00.260Z,0.90
2023-03-28T03:16:29.242Z,1.10
2023-03-28T03:18:57.215Z,0.77
2023-03-28T03:21:24.040Z,0.88
2023-03-28T03:23:50.775Z,0.60
2023-03-28T03:26:17.265Z,0.75
2023-03-28T03:28:44.547Z,1.02
2023-03-28T03:31:11.042Z,0.85
2023-03-28T03:33:42.142Z,0.70
2023-03-28T03:36:10.048Z,1.40
2023-03-28T03:38:36.515Z,1.30
2023-03-28T03:41:03.026Z,1.02
2023-03-28T03:43:29.426Z,0.75
2023-03-28T03:46:00.588Z,0.77
2023-03-28T03:48:27.174Z,0.98
2023-03-28T03:50:53.577Z,1.63
2023-03-28T03:53:19.948Z,0.90
2023-03-28T03:55:46.410Z,1.00
2023-03-28T03:58:12.729Z,0.93
2023-03-28T04:00:39.706Z,1.15
2023-03-28T04:03:06.354Z,1.20
2023-03-28T04:05:32.821Z,1.40
2023-03-28T04:08:00.425Z,0.93
2023-03-28T04:10:26.909Z,1.10
2023-03-28T04:12:53.251Z,1.20
2023-03-28T04:15:19.618Z,0.88
2023-03-28T04:17:46.198Z,1.27
2023-03-28T04:20:13.475Z,0.85
2023-03-28T04:22:46.168Z,1.08
2023-03-28T04:25:14.043Z,1.10
2023-03-28T04:27:41.903Z,0.90
2023-03-28T04:30:10.027Z,0.95
2023-03-28T04:32:37.761Z,1.02
2023-03-28T04:35:04.391Z,0.70
2023-03-28T04:37:30.866Z,0.85
2023-03-28T04:39:57.311Z,0.82
2023-03-28T04:42:23.656Z,0.75
2023-03-28T04:44:50.740Z,1.08
2023-03-28T04:47:18.484Z,1.10
2023-03-28T04:49:44.807Z,1.40
2023-03-28T04:52:11.214Z,1.17
2023-03-28T04:54:37.574Z,1.10
2023-03-28T04:57:04.748Z,1.40
2023-03-28T04:59:31.205Z,1.10
2023-03-28T05:01:57.578Z,0.88
2023-03-28T05:04:25.832Z,0.70
2023-03-28T05:06:52.228Z,0.80
2023-03-28T05:09:18.679Z,0.63
2023-03-28T05:11:45.542Z,1.10
2023-03-28T05:14:11.921Z,2.03
2023-03-28T05:16:38.329Z,1.30
2023-03-28T05:19:04.783Z,0.93
2023-03-28T05:21:31.097Z,1.45
2023-03-28T05:23:57.783Z,1.30
2023-03-28T05:26:24.190Z,1.00
2023-03-28T05:28:50.543Z,1.00
2023-03-28T05:31:17.505Z,1.00
2023-03-28T05:33:44.025Z,0.82
2023-03-28T05:36:10.617Z,1.23
2023-03-28T05:38:37.460Z,1.20
2023-03-28T05:41:04.087Z,1.17
2023-03-28T05:43:30.597Z,0.90
2023-03-28T05:45:56.985Z,0.85
2023-03-28T05:48:23.381Z,1.23
2023-03-28T05:50:51.049Z,1.23
2023-03-28T05:53:17.457Z,1.63
2023-03-28T05:55:43.825Z,1.52
2023-03-28T05:58:10.314Z,1.15
2023-03-28T06:00:37.172Z,1.20
2023-03-28T06:03:04.024Z,1.17
2023-03-28T06:05:31.401Z,1.10
2023-03-28T06:07:57.767Z,1.45
2023-03-28T06:10:25.661Z,1.40
2023-03-28T06:12:51.997Z,1.08
2023-03-28T06:15:18.400Z,1.17
2023-03-28T06:17:44.825Z,1.20
2023-03-28T06:20:11.352Z,1.73
2023-03-28T06:22:38.166Z,1.35
2023-03-28T06:25:05.635Z,1.58
2023-03-28T06:27:32.812Z,1.23
2023-03-28T06:30:00.098Z,0.82
2023-03-28T06:32:27.075Z,1.27
2023-03-28T06:34:53.493Z,1.33
2023-03-28T06:37:19.916Z,1.25
2023-03-28T06:39:46.350Z,1.33
2023-03-28T06:42:12.839Z,0.80
2023-03-28T06:44:39.162Z,1.20
2023-03-28T06:47:05.702Z,1.92
2023-03-28T06:49:32.050Z,1.33
2023-03-28T06:51:58.424Z,1.67
2023-03-28T06:54:25.215Z,0.82
2023-03-28T06:56:51.689Z,1.83
2023-03-28T06:59:18.101Z,1.60
2023-03-28T07:01:44.566Z,1.10
2023-03-28T07:04:10.955Z,1.60
2023-03-28T07:06:37.439Z,1.48
2023-03-28T07:09:05.996Z,1.63
2023-03-28T07:11:32.902Z,1.73
2023-03-28T07:13:59.318Z,1.80
2023-03-28T07:16:25.943Z,1.65
2023-03-28T07:18:52.410Z,1.98
2023-03-28T07:21:18.946Z,2.15
2023-03-28T07:23:45.752Z,1.58
2023-03-28T07:26:13.288Z,1.88
2023-03-28T07:28:39.640Z,2.22
2023-03-28T07:31:06.133Z,1.38
2023-03-28T07:33:37.241Z,2.13
2023-03-28T07:36:11.945Z,1.60
2023-03-28T07:38:38.418Z,1.75
2023-03-28T07:41:05.473Z,2.28
2023-03-28T07:43:32.057Z,1.98
2023-03-28T07:46:02.291Z,2.10
2023-03-28T07:48:29.008Z,1.75
2023-03-28T07:50:55.661Z,2.00
2023-03-28T07:53:22.080Z,1.90
2023-03-28T07:55:54.861Z,1.50
2023-03-28T07:58:22.352Z,1.90
2023-03-28T08:00:48.829Z,1.88
2023-03-28T08:03:16.033Z,2.28
2023-03-28T08:05:43.529Z,1.65
2023-03-28T08:08:09.968Z,1.50
2023-03-28T08:10:36.935Z,1.30
2023-03-28T08:13:03.683Z,1.30
2023-03-28T08:15:30.396Z,1.35
2023-03-28T08:17:56.843Z,2.42
2023-03-28T08:20:23.374Z,1.23
2023-03-28T08:22:49.790Z,1.67
2023-03-28T08:25:16.610Z,1.40
2023-03-28T08:27:42.990Z,1.45
2023-03-28T08:30:10.702Z,1.40
2023-03-28T08:32:37.185Z,1.58
2023-03-28T08:35:06.148Z,1.33
2023-03-28T08:37:32.904Z,1.30
2023-03-28T08:40:00.593Z,1.50
2023-03-28T08:42:30.653Z,2.30
2023-03-28T08:45:19.197Z,1.48
2023-03-28T08:47:45.603Z,1.55
2023-03-28T08:50:16.339Z,1.35
2023-03-28T08:52:43.186Z,1.50
2023-03-28T08:55:21.458Z,2.00
2023-03-28T08:57:50.652Z,2.08
2023-03-28T09:00:22.395Z,2.45
2023-03-28T09:02:51.280Z,2.67
2023-03-28T09:05:26.605Z,2.50
2023-03-28T09:07:56.575Z,2.60
2023-03-28T09:10:41.707Z,2.88
2023-03-28T09:13:26.603Z,2.45
2023-03-28T09:16:11.622Z,2.10
2023-03-28T09:18:57.536Z,2.33
2023-03-28T09:21:31.342Z,2.13
2023-03-28T09:24:09.731Z,1.83
2023-03-28T09:26:39.794Z,1.67
2023-03-28T09:29:11.751Z,1.50
2023-03-28T09:31:41.058Z,2.03
2023-03-28T09:34:07.588Z,1.70
2023-03-28T09:36:48.371Z,1.45
2023-03-28T09:39:21.855Z,1.77
2023-03-28T09:41:53.823Z,1.48
2023-03-28T09:44:22.874Z,1.98
2023-03-28T09:46:49.353Z,2.10
2023-03-28T09:49:20.248Z,1.45
2023-03-28T09:51:48.155Z,1.90
2023-03-28T09:54:14.542Z,1.80
2023-03-28T09:56:42.138Z,1.50
2023-03-28T09:59:29.126Z,1.30
2023-03-28T10:01:56.303Z,1.45
2023-03-28T10:04:28.557Z,1.40
2023-03-28T10:06:56.390Z,1.65
2023-03-28T10:09:22.957Z,1.50
2023-03-28T10:11:54.519Z,1.55
2023-03-28T10:14:39.904Z,1.95
2023-03-28T10:17:08.161Z,1.20
2023-03-28T10:19:37.119Z,1.42
2023-03-28T10:22:08.035Z,1.05
2023-03-28T10:24:34.782Z,1.40
2023-03-28T10:27:24.038Z,0.93
2023-03-28T10:29:54.465Z,1.20
2023-03-28T10:32:25.996Z,1.20
2023-03-28T10:35:03.582Z,1.30
2023-03-28T10:37:31.793Z,1.45
2023-03-28T10:40:18.305Z,1.20
2023-03-28T10:42:45.678Z,0.95
2023-03-28T10:45:23.917Z,0.85
2023-03-28T10:47:51.552Z,0.75
2023-03-28T10:50:36.774Z,0.80
2023-03-28T10:53:03.314Z,1.63
2023-03-28T10:55:37.636Z,1.70
2023-03-28T10:58:03.938Z,1.45
2023-03-28T11:00:33.141Z,1.23
2023-03-28T11:03:10.201Z,1.50
2023-03-28T11:05:52.192Z,1.52
2023-03-28T11:08:24.667Z,1.55
2023-03-28T11:10:54.085Z,2.00
2023-03-28T11:13:26.560Z,1.92
2023-03-28T11:16:02.706Z,2.30
2023-03-28T11:18:38.225Z,1.73
2023-03-28T11:21:12.264Z,2.25
2023-03-28T11:23:38.953Z,2.28
2023-03-28T11:26:10.552Z,2.50
2023-03-28T11:28:36.983Z,2.75
2023-03-28T11:31:03.711Z,2.78
2023-03-28T11:33:46.475Z,2.53
2023-03-28T11:36:18.747Z,2.97
2023-03-28T11:38:50.425Z,3.70
2023-03-28T11:41:22.027Z,3.30
2023-03-28T11:43:51.451Z,2.92
2023-03-28T11:46:17.892Z,2.20
2023-03-28T11:49:04.569Z,2.92
2023-03-28T11:51:54.034Z,2.65
2023-03-28T11:54:24.020Z,2.70
2023-03-28T11:57:16.705Z,2.47
2023-03-28T11:59:43.097Z,3.05
2023-03-28T12:02:22.230Z,3.83
2023-03-28T12:04:53.147Z,2.53
2023-03-28T12:07:26.310Z,2.53
2023-03-28T12:09:53.260Z,4.07
2023-03-28T12:12:24.275Z,1.55
2023-03-28T12:14:53.547Z,1.98
2023-03-28T12:17:49.304Z,2.58
2023-03-28T12:20:31.898Z,1.83
2023-03-28T12:23:04.619Z,1.70
2023-03-28T12:25:35.275Z,1.77
2023-03-28T12:28:01.640Z,1.73
2023-03-28T12:30:32.914Z,1.70
2023-03-28T12:33:14.910Z,1.30
2023-03-28T12:36:07.518Z,1.73
2023-03-28T12:38:37.891Z,1.58
2023-03-28T12:41:05.935Z,1.83
2023-03-28T12:43:43.824Z,1.30
2023-03-28T12:46:13.164Z,2.28
2023-03-28T12:48:39.651Z,1.50
2023-03-28T12:51:12.192Z,2.33
2023-03-28T12:53:45.676Z,1.77
2023-03-28T12:56:13.537Z,1.65
2023-03-28T12:58:39.922Z,1.67
2023-03-28T13:01:09.490Z,1.70
2023-03-28T13:03:36.085Z,1.35
2023-03-28T13:06:21.236Z,1.60
2023-03-28T13:08:59.503Z,1.70
2023-03-28T13:11:31.872Z,1.83
2023-03-28T13:14:16.993Z,1.45
2023-03-28T13:16:46.447Z,1.88
2023-03-28T13:19:16.456Z,1.55
2023-03-28T13:21:53.536Z,2.00
2023-03-28T13:24:28.789Z,1.95
2023-03-28T13:26:56.371Z,1.83
2023-03-28T13:29:43.337Z,1.40
2023-03-28T13:32:13.156Z,1.73
2023-03-28T13:34:46.217Z,2.20
2023-03-28T13:37:22.873Z,1.48
2023-03-28T13:39:50.804Z,1.50
2023-03-28T13:42:27.114Z,1.55
2023-03-28T13:44:55.857Z,2.08
2023-03-28T13:47:27.725Z,1.70
2023-03-28T13:49:59.336Z,1.80
2023-03-28T13:52:25.884Z,1.63
2023-03-28T13:54:54.972Z,1.70
2023-03-28T13:57:22.695Z,2.50
2023-03-28T13:59:53.830Z,1.95
2023-03-28T14:02:40.814Z,1.95
2023-03-28T14:05:15.725Z,1.85
2023-03-28T14:07:42.106Z,1.60
2023-03-28T14:10:27.712Z,2.13
2023-03-28T14:12:54.645Z,2.25
2023-03-28T14:15:25.804Z,1.92
2023-03-28T14:17:52.309Z,2.20
2023-03-28T14:20:18.769Z,2.08
2023-03-28T14:22:59.061Z,2.30
2023-03-28T14:25:27.522Z,2.38
2023-03-28T14:27:55.653Z,2.50
2023-03-28T14:30:37.283Z,2.03
2023-03-28T14:33:14.559Z,2.45
2023-03-28T14:35:47.885Z,2.47
2023-03-28T14:38:15.977Z,1.95
2023-03-28T14:40:45.664Z,2.13
2023-03-28T14:43:13.167Z,1.85
2023-03-28T14:45:42.574Z,2.22
2023-03-28T14:48:11.577Z,2.25
2023-03-28T14:50:38.578Z,1.77
2023-03-28T14:53:06.129Z,1.77
2023-03-28T14:55:33.287Z,1.88
2023-03-28T14:58:00.500Z,1.85
2023-03-28T15:00:36.978Z,1.98
2023-03-28T15:03:06.278Z,1.92
2023-03-28T15:05:33.652Z,1.98
2023-03-28T15:08:01.198Z,2.00
2023-03-28T15:10:28.125Z,2.10
2023-03-28T15:13:13.475Z,2.15
2023-03-28T15:15:44.171Z,2.20
2023-03-28T15:18:13.661Z,2.28
2023-03-28T15:20:42.755Z,2.60
2023-03-28T15:23:14.998Z,2.03
2023-03-28T15:25:42.258Z,2.10
2023-03-28T15:28:11.536Z,2.85
2023-03-28T15:30:41.386Z,2.53
2023-03-28T15:33:08.142Z,2.28
2023-03-28T15:35:39.194Z,2.42
2023-03-28T15:38:07.139Z,2.13
2023-03-28T15:40:38.564Z,2.05
2023-03-28T15:43:05.244Z,2.20
2023-03-28T15:45:40.629Z,2.50
2023-03-28T15:48:12.511Z,2.15
2023-03-28T15:50:41.245Z,2.60
2023-03-28T15:53:12.685Z,2.50
2023-03-28T15:55:40.102Z,2.50
2023-03-28T15:58:06.741Z,2.42
2023-03-28T16:00:43.949Z,2.65
2023-03-28T16:03:16.422Z,2.42
2023-03-28T16:05:48.035Z,2.65
2023-03-28T16:08:24.594Z,2.58
2023-03-28T16:10:50.957Z,2.55
2023-03-28T16:13:17.786Z,2.83
2023-03-28T16:15:44.202Z,2.95
2023-03-28T16:18:10.820Z,2.40
2023-03-28T16:20:37.262Z,2.53
2023-03-28T16:23:03.677Z,2.00
2023-03-28T16:25:30.112Z,2.83
2023-03-28T16:27:56.676Z,2.90
2023-03-28T16:30:28.651Z,2.72
2023-03-28T16:32:55.163Z,2.50
2023-03-28T16:35:22.721Z,2.90
2023-03-28T16:37:49.204Z,2.65
2023-03-28T16:40:16.067Z,3.03
2023-03-28T16:42:42.711Z,2.47
2023-03-28T16:45:12.498Z,2.97
2023-03-28T16:47:39.275Z,2.92
2023-03-28T16:50:06.552Z,2.95
2023-03-28T16:52:38.710Z,2.50
2023-03-28T16:55:08.816Z,2.97
2023-03-28T16:57:36.174Z,2.83
2023-03-28T17:00:04.796Z,2.65
2023-03-28T17:02:31.877Z,2.53
2023-03-28T17:04:58.301Z,2.22
2023-03-28T17:07:24.753Z,2.60
2023-03-28T17:09:51.328Z,2.45
2023-03-28T17:12:18.428Z,2.90
2023-03-28T17:14:46.041Z,2.60
2023-03-28T17:17:13.191Z,3.00
2023-03-28T17:19:39.675Z,2.70
2023-03-28T17:22:06.070Z,2.38
2023-03-28T17:24:32.902Z,2.58
2023-03-28T17:26:59.418Z,2.55
2023-03-28T17:29:25.860Z,3.22
2023-03-28T17:31:52.834Z,2.80
2023-03-28T17:34:19.419Z,2.80
2023-03-28T17:36:46.014Z,2.50
2023-03-28T17:39:12.608Z,2.53
2023-03-28T17:41:39.008Z,1.98
2023-03-28T17:44:06.613Z,2.42
2023-03-28T17:46:33.436Z,2.42
2023-03-28T17:48:59.859Z,2.47
2023-03-28T17:51:26.356Z,2.50
2023-03-28T17:53:53.509Z,2.38
2023-03-28T17:56:19.942Z,2.28
2023-03-28T17:58:46.582Z,2.47
2023-03-28T18:01:14.697Z,2.25
2023-03-28T18:03:41.622Z,2.67
2023-03-28T18:06:08.384Z,2.60
2023-03-28T18:08:35.320Z,1.88
2023-03-28T18:11:02.723Z,1.98
2023-03-28T18:13:29.044Z,1.92
2023-03-28T18:15:55.525Z,1.98
2023-03-28T18:18:21.966Z,1.70
2023-03-28T18:20:49.634Z,1.85
2023-03-28T18:23:16.332Z,1.67
2023-03-28T18:25:42.890Z,1.60
2023-03-28T18:28:09.657Z,1.45
2023-03-28T18:30:36.987Z,1.38
2023-03-28T18:33:03.520Z,1.50
2023-03-28T18:35:30.087Z,1.50
2023-03-28T18:37:56.540Z,1.58
2023-03-28T18:40:22.901Z,1.67
2023-03-28T18:42:49.635Z,1.75
2023-03-28T18:45:16.334Z,1.95
2023-03-28T18:47:42.739Z,2.00
2023-03-28T18:50:10.710Z,2.30
2023-03-28T18:52:37.636Z,2.40
2023-03-28T18:55:07.707Z,2.20
2023-03-28T18:57:35.030Z,2.53
2023-03-28T19:00:02.028Z,2.58
2023-03-28T19:02:29.041Z,2.35
2023-03-28T19:04:56.199Z,2.38
2023-03-28T19:07:22.624Z,2.72
2023-03-28T19:09:49.069Z,2.17
2023-03-28T19:12:15.567Z,2.78
2023-03-28T19:14:41.975Z,2.60
2023-03-28T19:17:08.469Z,2.63
2023-03-28T19:19:37.442Z,3.17
2023-03-28T19:22:05.317Z,2.35
2023-03-28T19:24:32.113Z,2.53
2023-03-28T19:26:59.764Z,2.95
2023-03-28T19:29:26.900Z,2.58
2023-03-28T19:31:53.405Z,2.10
2023-03-28T19:34:20.465Z,2.08
2023-03-28T19:36:47.612Z,3.10
2023-03-28T19:39:14.214Z,2.30
2023-03-28T19:41:41.063Z,2.42
2023-03-28T19:44:07.447Z,2.05
2023-03-28T19:46:36.341Z,2.67
2023-03-28T19:49:06.390Z,2.10
2023-03-28T19:51:34.139Z,2.28
2023-03-28T19:54:00.792Z,2.13
2023-03-28T19:56:27.992Z,1.65
2023-03-28T19:58:54.471Z,1.58
2023-03-28T20:01:21.086Z,1.90
2023-03-28T20:03:52.143Z,1.90
2023-03-28T20:06:19.742Z,1.63
2023-03-28T20:08:46.325Z,1.63
2023-03-28T20:11:13.338Z,1.60
2023-03-28T20:13:39.959Z,1.55
2023-03-28T20:16:07.725Z,1.90
2023-03-28T20:18:34.450Z,1.90
2023-03-28T20:21:01.957Z,1.92
2023-03-28T20:23:29.192Z,2.17
2023-03-28T20:25:56.346Z,2.55
2023-03-28T20:28:24.737Z,2.00
2023-03-28T20:30:52.068Z,1.85
2023-03-28T20:33:20.452Z,1.45
2023-03-28T20:35:57.155Z,3.10
2023-03-28T20:38:24.598Z,1.90
2023-03-28T20:40:51.404Z,1.67
2023-03-28T20:43:21.068Z,1.90
2023-03-28T20:45:54.240Z,1.55
2023-03-28T20:48:34.155Z,1.55
2023-03-28T20:51:03.187Z,1.20
2023-03-28T20:53:33.412Z,1.20
2023-03-28T20:56:01.861Z,1.40
2023-03-28T20:58:29.189Z,1.65
2023-03-28T21:00:57.210Z,1.75
2023-03-28T21:03:24.046Z,1.88
2023-03-28T21:05:51.326Z,1.70
2023-03-28T21:08:19.769Z,1.25
2023-03-28T21:10:53.439Z,1.77
2023-03-28T21:13:22.433Z,1.50
2023-03-28T21:15:52.305Z,1.50
2023-03-28T21:18:18.656Z,1.52
2023-03-28T21:20:48.258Z,1.20
2023-03-28T21:23:16.099Z,2.00
2023-03-28T21:25:43.270Z,1.70
2023-03-28T21:28:10.910Z,1.10
2023-03-28T21:30:37.331Z,1.23
2023-03-28T21:33:04.004Z,1.60
2023-03-28T21:35:30.614Z,1.20
2023-03-28T21:37:57.181Z,1.20
2023-03-28T21:40:23.693Z,1.40
2023-03-28T21:42:50.398Z,1.30
2023-03-28T21:45:16.954Z,1.33
2023-03-28T21:47:44.849Z,1.95
2023-03-28T21:50:13.732Z,1.48
2023-03-28T21:52:41.186Z,1.60
2023-03-28T21:55:09.312Z,1.48
2023-03-28T21:57:36.794Z,1.40
2023-03-28T22:00:14.665Z,1.45
2023-03-28T22:02:41.908Z,1.45
2023-03-28T22:05:15.807Z,1.70
2023-03-28T22:07:53.355Z,1.65
2023-03-28T22:10:20.041Z,1.33
2023-03-28T22:12:46.623Z,1.48
2023-03-28T22:15:13.969Z,1.23
2023-03-28T22:17:43.612Z,1.10
2023-03-28T22:20:11.705Z,1.73
2023-03-28T22:22:41.872Z,1.27
2023-03-28T22:25:09.354Z,1.33
2023-03-28T22:27:36.641Z,1.42
2023-03-28T22:30:03.278Z,1.58
2023-03-28T22:32:29.694Z,1.30
2023-03-28T22:34:56.306Z,1.30
2023-03-28T22:37:22.985Z,1.50
2023-03-28T22:39:49.352Z,1.10
2023-03-28T22:42:16.227Z,2.05
2023-03-28T22:44:42.576Z,1.33
2023-03-28T22:47:09.894Z,1.45
2023-03-28T22:49:37.052Z,1.42
2023-03-28T22:52:03.628Z,1.30
2023-03-28T22:54:30.526Z,1.60
2023-03-28T22:56:57.574Z,1.80
2023-03-28T22:59:24.186Z,1.40
2023-03-28T23:01:51.147Z,1.48
2023-03-28T23:04:18.125Z,1.70
2023-03-28T23:06:44.786Z,1.30
2023-03-28T23:09:12.876Z,1.40
2023-03-28T23:11:40.003Z,1.48
2023-03-28T23:14:06.855Z,1.88
2023-03-28T23:16:33.469Z,1.30
2023-03-28T23:19:00.431Z,1.30
2023-03-28T23:21:27.378Z,1.33
2023-03-28T23:23:53.762Z,1.63
2023-03-28T23:26:20.104Z,1.60
2023-03-28T23:28:46.596Z,1.58
2023-03-28T23:31:13.115Z,1.70
2023-03-28T23:33:40.064Z,1.60
2023-03-28T23:36:06.865Z,1.40
2023-03-28T23:38:33.287Z,1.38
2023-03-28T23:40:59.760Z,1.33
2023-03-28T23:43:26.227Z,2.47
2023-03-28T23:45:52.756Z,1.70
2023-03-28T23:48:19.112Z,1.38
2023-03-28T23:50:45.520Z,1.48
2023-03-28T23:53:11.945Z,1.25
2023-03-28T23:55:38.364Z,1.70
2023-03-28T23:58:04.952Z,1.60
